Time;durP1;ratioP1;P1;durP2;ratioP2;P2;SDS_P1;SDS_P2;PMS_P1;PMS_P2;Temp;Humidity;BMP_temperature;BMP_pressure;BME280_temperature;BME280_humidity;BME280_pressure;Samples;Min_cycle;Max_cycle;Signal;HPM_P1;HPM_P2
2022/01/07 00:01:35;;;;;;;14.30;5.50;;;;;;;;;;5019729;28;20135;-73
2022/01/07 00:04:01;;;;;;;14.50;5.68;;;;;;;;;;5019036;28;20037;-72
2022/01/07 00:06:27;;;;;;;14.10;5.20;;;;;;;;;;5019323;28;20051;-73
2022/01/07 00:08:53;;;;;;;11.13;5.40;;;;;;;;;;5015648;28;20092;-73
2022/01/07 00:11:19;;;;;;;12.10;5.00;;;;;;;;;;5035512;28;20102;-73
2022/01/07 00:13:45;;;;;;;9.82;5.25;;;;;;;;;;5035637;28;20044;-74
2022/01/07 00:16:12;;;;;;;14.35;5.32;;;;;;;;;;5035261;28;20041;-73
2022/01/07 00:18:41;;;;;;;16.25;5.60;;;;;;;;;;5035195;28;20040;-73
2022/01/07 00:21:07;;;;;;;15.73;5.63;;;;;;;;;;5035016;28;20074;-74
2022/01/07 00:23:33;;;;;;;16.13;5.70;;;;;;;;;;5035452;28;20048;-74
2022/01/07 00:26:00;;;;;;;11.20;5.22;;;;;;;;;;5035465;28;20049;-74
2022/01/07 00:28:26;;;;;;;15.93;4.97;;;;;;;;;;5035391;28;20045;-74
2022/01/07 00:30:52;;;;;;;14.10;5.30;;;;;;;;;;5034803;28;20535;-74
2022/01/07 00:33:18;;;;;;;15.23;5.03;;;;;;;;;;5035099;28;20044;-74
2022/01/07 00:35:44;;;;;;;13.98;5.45;;;;;;;;;;5036303;28;20041;-74
2022/01/07 00:38:10;;;;;;;14.82;5.72;;;;;;;;;;5040664;28;20383;-74
2022/01/07 00:40:36;;;;;;;11.02;5.13;;;;;;;;;;5039283;28;20037;-74
2022/01/07 00:43:03;;;;;;;13.23;4.95;;;;;;;;;;5018652;28;20075;-74
2022/01/07 00:45:29;;;;;;;12.38;5.55;;;;;;;;;;5020263;28;20036;-74
2022/01/07 00:47:56;;;;;;;11.13;5.22;;;;;;;;;;5023803;28;20110;-74
2022/01/07 00:50:22;;;;;;;15.68;5.97;;;;;;;;;;5038920;28;20045;-74
2022/01/07 00:52:48;;;;;;;17.95;6.85;;;;;;;;;;5017988;28;20094;-74
2022/01/07 00:55:14;;;;;;;13.68;5.95;;;;;;;;;;5018281;28;20032;-74
2022/01/07 00:57:40;;;;;;;19.20;6.53;;;;;;;;;;5018412;28;20043;-74
2022/01/07 01:00:08;;;;;;;15.43;5.82;;;;;;;;;;5034368;28;20513;-74
2022/01/07 01:02:34;;;;;;;16.90;5.32;;;;;;;;;;5017925;28;20048;-74
2022/01/07 01:05:01;;;;;;;15.10;5.93;;;;;;;;;;5018099;28;20040;-74
2022/01/07 01:07:27;;;;;;;14.90;6.32;;;;;;;;;;5017906;28;20045;-74
2022/01/07 01:09:53;;;;;;;11.98;5.57;;;;;;;;;;5017648;28;20048;-74
2022/01/07 01:12:19;;;;;;;14.50;6.85;;;;;;;;;;5018112;28;20502;-74
2022/01/07 01:14:45;;;;;;;14.52;6.32;;;;;;;;;;5018136;28;20045;-73
2022/01/07 01:17:11;;;;;;;12.27;5.93;;;;;;;;;;5017782;28;20374;-74
2022/01/07 01:19:38;;;;;;;17.38;6.47;;;;;;;;;;5017568;28;20059;-74
2022/01/07 01:22:04;;;;;;;13.30;6.18;;;;;;;;;;5017791;28;20072;-73
2022/01/07 01:24:30;;;;;;;19.17;7.22;;;;;;;;;;5017700;28;20037;-74
2022/01/07 01:26:56;;;;;;;13.13;7.70;;;;;;;;;;5017713;28;20075;-74
2022/01/07 01:29:22;;;;;;;13.82;6.32;;;;;;;;;;5017434;28;20041;-74
2022/01/07 01:31:49;;;;;;;21.85;7.75;;;;;;;;;;5017935;28;20408;-73
2022/01/07 01:34:15;;;;;;;19.23;7.07;;;;;;;;;;5017493;28;20041;-74
2022/01/07 01:36:41;;;;;;;11.73;6.75;;;;;;;;;;5017448;28;20055;-74
2022/01/07 01:39:08;;;;;;;19.70;8.13;;;;;;;;;;5017313;28;20052;-72
2022/01/07 01:41:34;;;;;;;20.20;7.07;;;;;;;;;;5017301;28;20542;-73
2022/01/07 01:44:00;;;;;;;12.75;7.28;;;;;;;;;;5017358;28;20045;-73
2022/01/07 01:46:27;;;;;;;15.10;7.03;;;;;;;;;;5017237;28;20053;-73
2022/01/07 01:48:53;;;;;;;15.73;6.75;;;;;;;;;;5017125;28;20057;-73
2022/01/07 01:51:19;;;;;;;16.23;6.93;;;;;;;;;;5017455;28;20443;-73
2022/01/07 01:53:45;;;;;;;14.80;6.85;;;;;;;;;;5017302;28;20041;-73
2022/01/07 01:56:11;;;;;;;13.95;7.78;;;;;;;;;;5017474;28;20048;-73
2022/01/07 01:58:37;;;;;;;23.08;8.40;;;;;;;;;;5033589;28;20041;-73
2022/01/07 02:01:03;;;;;;;14.60;8.05;;;;;;;;;;5017079;28;20045;-73
2022/01/07 02:03:29;;;;;;;15.30;7.03;;;;;;;;;;5016671;28;20409;-73
2022/01/07 02:05:56;;;;;;;16.02;7.57;;;;;;;;;;5017133;28;20036;-73
2022/01/07 02:08:22;;;;;;;16.30;7.25;;;;;;;;;;5017282;28;20483;-74
2022/01/07 02:10:48;;;;;;;14.35;7.75;;;;;;;;;;5033189;28;20041;-73
2022/01/07 02:13:17;;;;;;;16.25;8.25;;;;;;;;;;5017116;28;20041;-72
2022/01/07 02:15:43;;;;;;;13.20;8.63;;;;;;;;;;5017068;28;20083;-73
2022/01/07 02:18:10;;;;;;;15.13;7.78;;;;;;;;;;5017016;28;20492;-73
2022/01/07 02:20:36;;;;;;;15.15;9.30;;;;;;;;;;5016706;28;20037;-73
2022/01/07 02:23:02;;;;;;;16.70;8.88;;;;;;;;;;5016861;28;20500;-73
2022/01/07 02:25:28;;;;;;;18.55;8.63;;;;;;;;;;5017225;28;20086;-73
2022/01/07 02:27:55;;;;;;;15.88;7.88;;;;;;;;;;5016548;28;20041;-73
2022/01/07 02:30:24;;;;;;;12.70;8.82;;;;;;;;;;5016518;28;20514;-73
2022/01/07 02:32:50;;;;;;;14.45;8.48;;;;;;;;;;5017009;28;20438;-73
2022/01/07 02:35:17;;;;;;;14.43;8.65;;;;;;;;;;5016863;28;20041;-73
2022/01/07 02:37:43;;;;;;;14.43;9.48;;;;;;;;;;5016640;28;20045;-73
2022/01/07 02:40:10;;;;;;;15.05;8.35;;;;;;;;;;5016288;28;20431;-73
2022/01/07 02:42:36;;;;;;;13.70;8.75;;;;;;;;;;4996999;28;20045;-73
2022/01/07 02:45:05;;;;;;;15.00;8.45;;;;;;;;;;5013665;28;20382;-73
2022/01/07 02:47:38;;;;;;;19.00;9.30;;;;;;;;;;4997080;28;20045;-73
2022/01/07 02:50:05;;;;;;;20.08;9.70;;;;;;;;;;4996781;28;20534;-73
2022/01/07 02:52:31;;;;;;;17.38;9.18;;;;;;;;;;4997282;28;20111;-73
2022/01/07 02:54:58;;;;;;;16.50;8.40;;;;;;;;;;5007930;28;20120;-73
2022/01/07 02:57:24;;;;;;;17.88;7.85;;;;;;;;;;5016594;28;20041;-73
2022/01/07 02:59:50;;;;;;;18.25;9.30;;;;;;;;;;5016582;28;20080;-73
2022/01/07 03:02:16;;;;;;;17.40;9.60;;;;;;;;;;5017046;28;20408;-73
2022/01/07 03:04:42;;;;;;;13.98;8.95;;;;;;;;;;5016838;28;20572;-73
2022/01/07 03:07:08;;;;;;;20.52;9.27;;;;;;;;;;5016385;28;20127;-73
2022/01/07 03:09:34;;;;;;;22.45;10.23;;;;;;;;;;5018113;28;20107;-74
2022/01/07 03:12:00;;;;;;;13.40;9.48;;;;;;;;;;5032935;28;20485;-73
2022/01/07 03:14:27;;;;;;;17.92;9.80;;;;;;;;;;5033330;28;20075;-73
2022/01/07 03:16:53;;;;;;;13.50;9.25;;;;;;;;;;5036470;28;20052;-74
2022/01/07 03:19:19;;;;;;;15.85;9.65;;;;;;;;;;5036504;28;20076;-74
2022/01/07 03:21:45;;;;;;;19.25;10.48;;;;;;;;;;5036532;28;20527;-73
2022/01/07 03:24:12;;;;;;;15.88;9.77;;;;;;;;;;5036403;28;20041;-73
2022/01/07 03:26:38;;;;;;;14.15;9.50;;;;;;;;;;5036704;28;20095;-73
2022/01/07 03:29:04;;;;;;;16.10;10.43;;;;;;;;;;5036318;28;20083;-74
2022/01/07 03:31:30;;;;;;;14.27;10.10;;;;;;;;;;5036358;28;20037;-74
2022/01/07 03:33:56;;;;;;;17.33;10.35;;;;;;;;;;5036536;28;20040;-74
2022/01/07 03:36:22;;;;;;;13.77;10.02;;;;;;;;;;5036387;28;20048;-73
2022/01/07 03:38:48;;;;;;;12.60;8.50;;;;;;;;;;5036007;28;20449;-73
2022/01/07 03:41:15;;;;;;;16.88;10.05;;;;;;;;;;5030000;28;20060;-73
2022/01/07 03:43:41;;;;;;;16.65;9.77;;;;;;;;;;5019971;28;20040;-74
2022/01/07 03:46:07;;;;;;;17.02;9.45;;;;;;;;;;5019946;28;20041;-73
2022/01/07 03:48:33;;;;;;;13.95;9.55;;;;;;;;;;5019208;28;20527;-72
2022/01/07 03:50:59;;;;;;;14.95;9.85;;;;;;;;;;5033488;28;20037;-74
2022/01/07 03:53:25;;;;;;;20.17;10.27;;;;;;;;;;5032681;28;20497;-74
2022/01/07 03:55:52;;;;;;;16.80;9.63;;;;;;;;;;5018427;28;20565;-74
2022/01/07 03:58:17;;;;;;;16.33;9.50;;;;;;;;;;5019890;28;20067;-74
2022/01/07 04:00:43;;;;;;;14.77;9.07;;;;;;;;;;5019622;28;20045;-74
2022/01/07 04:03:14;;;;;;;13.75;9.75;;;;;;;;;;5019658;28;20041;-74
2022/01/07 04:05:40;;;;;;;14.10;10.13;;;;;;;;;;5019635;28;20041;-74
2022/01/07 04:08:07;;;;;;;16.45;9.50;;;;;;;;;;5019094;28;20072;-73
2022/01/07 04:10:33;;;;;;;15.23;9.13;;;;;;;;;;5019006;28;20041;-74
2022/01/07 04:12:59;;;;;;;14.38;8.70;;;;;;;;;;5019371;28;20544;-74
2022/01/07 04:15:25;;;;;;;15.95;9.43;;;;;;;;;;5036037;28;20511;-74
2022/01/07 04:17:52;;;;;;;16.35;9.25;;;;;;;;;;5019182;28;20073;-73
2022/01/07 04:20:20;;;;;;;13.02;8.80;;;;;;;;;;5018818;28;20098;-74
2022/01/07 04:22:46;;;;;;;13.40;10.05;;;;;;;;;;5019004;28;20045;-74
2022/01/07 04:25:17;;;;;;;13.52;10.60;;;;;;;;;;5019317;28;20052;-74
2022/01/07 04:27:43;;;;;;;13.82;9.20;;;;;;;;;;5018462;28;20126;-73
2022/01/07 04:30:09;;;;;;;14.57;9.10;;;;;;;;;;5018650;28;20091;-73
2022/01/07 04:32:37;;;;;;;18.92;9.70;;;;;;;;;;5019103;28;20041;-73
2022/01/07 04:35:03;;;;;;;14.98;10.10;;;;;;;;;;5018834;28;20037;-74
2022/01/07 04:37:29;;;;;;;13.60;9.73;;;;;;;;;;5018653;28;20041;-74
2022/01/07 04:39:55;;;;;;;16.83;10.30;;;;;;;;;;5018421;28;20045;-73
2022/01/07 04:42:21;;;;;;;16.10;10.00;;;;;;;;;;5000768;28;20048;-74
2022/01/07 04:44:47;;;;;;;14.30;9.85;;;;;;;;;;5000197;28;20041;-74
2022/01/07 04:47:13;;;;;;;16.80;10.63;;;;;;;;;;5007318;28;20440;-74
2022/01/07 04:49:39;;;;;;;15.57;10.10;;;;;;;;;;5006634;28;20076;-73
2022/01/07 04:52:05;;;;;;;13.95;10.30;;;;;;;;;;5002560;28;20095;-74
2022/01/07 04:54:31;;;;;;;15.43;10.15;;;;;;;;;;5006375;28;20065;-74
2022/01/07 04:56:57;;;;;;;16.83;10.27;;;;;;;;;;5025755;28;20060;-74
2022/01/07 04:59:24;;;;;;;13.95;9.65;;;;;;;;;;5027196;28;20068;-74
2022/01/07 05:01:49;;;;;;;16.20;10.52;;;;;;;;;;5022622;28;20045;-74
2022/01/07 05:04:15;;;;;;;15.10;9.85;;;;;;;;;;5018350;28;20449;-74
2022/01/07 05:06:45;;;;;;;13.77;9.15;;;;;;;;;;5034789;28;20527;-74
2022/01/07 05:09:18;;;;;;;18.70;10.55;;;;;;;;;;5017677;28;20045;-73
2022/01/07 05:11:48;;;;;;;13.52;9.73;;;;;;;;;;5018084;28;20040;-74
2022/01/07 05:14:14;;;;;;;14.93;10.32;;;;;;;;;;5018108;28;20447;-74
2022/01/07 05:16:41;;;;;;;18.65;10.02;;;;;;;;;;5017968;28;20053;-74
2022/01/07 05:19:07;;;;;;;18.35;10.52;;;;;;;;;;5017642;28;20047;-72
2022/01/07 05:21:33;;;;;;;13.82;10.18;;;;;;;;;;5018197;28;20083;-74
2022/01/07 05:23:59;;;;;;;16.58;10.73;;;;;;;;;;5018273;28;20382;-73
2022/01/07 05:26:25;;;;;;;16.10;10.30;;;;;;;;;;5017989;28;20048;-74
2022/01/07 05:28:51;;;;;;;13.70;9.90;;;;;;;;;;5017729;28;20049;-73
2022/01/07 05:31:22;;;;;;;16.88;10.77;;;;;;;;;;5017525;28;20048;-73
2022/01/07 05:33:49;;;;;;;21.45;11.32;;;;;;;;;;5017839;28;20500;-74
2022/01/07 05:36:15;;;;;;;16.27;10.68;;;;;;;;;;5017832;28;20066;-73
2022/01/07 05:38:41;;;;;;;19.15;11.00;;;;;;;;;;5017812;28;20531;-74
2022/01/07 05:41:07;;;;;;;19.15;11.02;;;;;;;;;;5033636;28;20037;-73
2022/01/07 05:43:33;;;;;;;15.90;10.60;;;;;;;;;;5017792;28;20037;-74
2022/01/07 05:45:59;;;;;;;18.98;10.93;;;;;;;;;;5034128;28;20446;-74
2022/01/07 05:48:25;;;;;;;18.08;10.73;;;;;;;;;;5017322;28;20052;-74
2022/01/07 05:50:51;;;;;;;20.60;11.90;;;;;;;;;;5017088;28;20041;-74
2022/01/07 05:53:17;;;;;;;16.23;10.18;;;;;;;;;;5017627;28;20037;-74
2022/01/07 05:55:43;;;;;;;18.02;10.48;;;;;;;;;;5017361;28;20048;-74
2022/01/07 05:58:09;;;;;;;14.43;10.73;;;;;;;;;;5017240;28;20047;-74
2022/01/07 06:00:35;;;;;;;17.13;11.20;;;;;;;;;;5017058;28;20075;-74
2022/01/07 06:03:01;;;;;;;16.60;11.13;;;;;;;;;;5017260;28;20041;-74
2022/01/07 06:05:27;;;;;;;14.80;11.00;;;;;;;;;;5033667;28;20124;-74
2022/01/07 06:07:53;;;;;;;18.33;11.38;;;;;;;;;;5017356;28;20073;-74
2022/01/07 06:10:19;;;;;;;16.42;10.93;;;;;;;;;;5025161;28;20171;-74
2022/01/07 06:12:45;;;;;;;15.65;11.15;;;;;;;;;;5033972;28;20033;-74
2022/01/07 06:15:11;;;;;;;17.65;11.30;;;;;;;;;;5033515;28;20433;-74
2022/01/07 06:17:38;;;;;;;14.68;9.98;;;;;;;;;;5049931;28;20045;-74
2022/01/07 06:20:08;;;;;;;15.05;9.93;;;;;;;;;;5033477;28;20049;-74
2022/01/07 06:22:37;;;;;;;14.98;10.90;;;;;;;;;;5033688;28;20037;-74
2022/01/07 06:25:04;;;;;;;14.27;10.35;;;;;;;;;;5033450;28;20045;-74
2022/01/07 06:27:30;;;;;;;16.30;10.65;;;;;;;;;;5033768;28;20072;-74
2022/01/07 06:29:57;;;;;;;17.45;11.55;;;;;;;;;;5049748;28;20045;-74
2022/01/07 06:32:23;;;;;;;13.90;11.68;;;;;;;;;;5033628;28;20048;-74
2022/01/07 06:34:49;;;;;;;17.35;11.30;;;;;;;;;;5033306;28;20033;-74
2022/01/07 06:37:15;;;;;;;15.77;11.63;;;;;;;;;;5033511;28;20542;-74
2022/01/07 06:39:41;;;;;;;15.13;10.30;;;;;;;;;;5033041;28;20045;-74
2022/01/07 06:42:08;;;;;;;16.85;11.73;;;;;;;;;;5020288;28;20041;-74
2022/01/07 06:44:35;;;;;;;18.65;12.25;;;;;;;;;;5016894;28;20182;-74
2022/01/07 06:47:01;;;;;;;14.85;11.57;;;;;;;;;;5016583;28;20048;-74
2022/01/07 06:49:27;;;;;;;16.38;11.40;;;;;;;;;;5016982;28;20052;-74
2022/01/07 06:51:54;;;;;;;16.63;12.15;;;;;;;;;;5020682;28;20045;-74
2022/01/07 06:54:20;;;;;;;14.82;11.48;;;;;;;;;;5020579;28;20029;-74
2022/01/07 06:56:46;;;;;;;22.10;13.00;;;;;;;;;;5020370;28;20041;-74
2022/01/07 06:59:12;;;;;;;18.48;13.02;;;;;;;;;;5020307;28;20047;-74
2022/01/07 07:01:39;;;;;;;19.00;12.75;;;;;;;;;;5020394;28;20045;-75
2022/01/07 07:04:05;;;;;;;16.48;13.00;;;;;;;;;;5037249;28;20080;-74
2022/01/07 07:06:31;;;;;;;17.67;12.57;;;;;;;;;;5020325;28;20094;-74
2022/01/07 07:08:57;;;;;;;19.02;12.82;;;;;;;;;;5020064;28;20045;-74
2022/01/07 07:11:23;;;;;;;17.38;13.48;;;;;;;;;;5020470;28;20296;-74
2022/01/07 07:13:49;;;;;;;16.88;13.32;;;;;;;;;;5020560;28;20041;-74
2022/01/07 07:16:15;;;;;;;21.58;14.45;;;;;;;;;;5020307;28;20406;-75
2022/01/07 07:18:41;;;;;;;18.95;13.05;;;;;;;;;;5020267;28;20210;-74
2022/01/07 07:21:08;;;;;;;19.35;14.70;;;;;;;;;;5020187;28;20045;-74
2022/01/07 07:23:34;;;;;;;20.90;14.60;;;;;;;;;;5019349;28;20094;-74
2022/01/07 07:26:00;;;;;;;20.25;13.98;;;;;;;;;;5036639;28;20048;-74
2022/01/07 07:28:26;;;;;;;24.02;13.13;;;;;;;;;;5036720;28;20063;-74
2022/01/07 07:30:55;;;;;;;21.85;14.10;;;;;;;;;;5036692;28;20144;-74
2022/01/07 07:38:36;;;;;;;21.05;13.48;;;;;;;;;;5062126;28;20098;-73
2022/01/07 07:41:02;;;;;;;21.77;14.95;;;;;;;;;;5021151;28;20499;-74
2022/01/07 07:43:28;;;;;;;20.85;14.93;;;;;;;;;;5036181;28;20048;-75
2022/01/07 07:45:54;;;;;;;20.40;15.05;;;;;;;;;;5036971;28;20040;-74
2022/01/07 07:48:20;;;;;;;24.88;15.02;;;;;;;;;;5035330;28;20044;-74
2022/01/07 07:50:46;;;;;;;22.08;14.82;;;;;;;;;;5015280;28;20519;-74
2022/01/07 07:53:12;;;;;;;23.08;15.50;;;;;;;;;;5021443;28;20067;-74
2022/01/07 07:55:38;;;;;;;22.38;15.00;;;;;;;;;;5027993;28;20045;-75
2022/01/07 07:58:04;;;;;;;27.90;15.23;;;;;;;;;;5036707;28;20080;-74
2022/01/07 08:00:31;;;;;;;22.27;15.35;;;;;;;;;;5052802;28;20087;-74
2022/01/07 08:02:58;;;;;;;31.15;15.75;;;;;;;;;;5033558;28;20048;-74
2022/01/07 08:05:24;;;;;;;19.77;14.95;;;;;;;;;;5032512;28;20071;-74
2022/01/07 08:07:50;;;;;;;23.30;16.15;;;;;;;;;;5016328;28;20045;-75
2022/01/07 08:10:23;;;;;;;22.13;15.25;;;;;;;;;;5017592;28;20099;-74
2022/01/07 08:18:15;;;;;;;28.38;16.55;;;;;;;;;;5035978;28;20085;-75
2022/01/07 08:20:41;;;;;;;27.60;16.40;;;;;;;;;;5018940;28;20084;-74
2022/01/07 08:23:07;;;;;;;24.95;17.25;;;;;;;;;;5019710;28;20446;-75
2022/01/07 08:25:33;;;;;;;31.42;16.55;;;;;;;;;;5035738;28;20037;-75
2022/01/07 08:28:02;;;;;;;25.77;17.02;;;;;;;;;;5019469;28;20041;-74
2022/01/07 08:30:35;;;;;;;23.95;15.93;;;;;;;;;;5019000;28;20047;-74
2022/01/07 08:35:46;;;;;;;32.40;16.52;;;;;;;;;;5036652;28;20053;-75
2022/01/07 08:38:13;;;;;;;25.77;16.13;;;;;;;;;;5019924;28;20143;-73
2022/01/07 08:40:39;;;;;;;30.38;17.48;;;;;;;;;;5015902;28;20045;-74
2022/01/07 08:43:05;;;;;;;28.45;17.17;;;;;;;;;;5019815;28;20401;-74
2022/01/07 08:45:31;;;;;;;26.85;16.58;;;;;;;;;;5019577;28;20036;-73
2022/01/07 08:47:58;;;;;;;29.65;17.10;;;;;;;;;;5038518;28;20102;-74
2022/01/07 08:50:24;;;;;;;29.15;17.58;;;;;;;;;;5016035;28;20058;-73
2022/01/07 08:52:52;;;;;;;25.70;17.08;;;;;;;;;;5010624;28;20033;-75
2022/01/07 08:55:18;;;;;;;33.17;18.33;;;;;;;;;;5012873;28;20034;-75
2022/01/07 08:57:45;;;;;;;30.98;17.85;;;;;;;;;;5038523;28;20104;-75
2022/01/07 09:00:11;;;;;;;27.88;19.40;;;;;;;;;;5038658;28;20041;-75
2022/01/07 09:02:37;;;;;;;29.67;17.67;;;;;;;;;;5018661;28;20041;-74
2022/01/07 09:05:03;;;;;;;27.70;18.15;;;;;;;;;;5025014;28;20488;-75
2022/01/07 09:07:29;;;;;;;27.05;17.52;;;;;;;;;;5024117;28;20045;-74
2022/01/07 09:09:55;;;;;;;33.97;17.02;;;;;;;;;;5037255;28;20052;-73
2022/01/07 09:12:21;;;;;;;34.33;18.70;;;;;;;;;;5017671;28;20105;-73
2022/01/07 09:14:47;;;;;;;30.60;17.23;;;;;;;;;;5000411;28;20034;-74
2022/01/07 09:17:13;;;;;;;30.70;17.60;;;;;;;;;;5030102;28;20043;-73
2022/01/07 09:19:39;;;;;;;34.33;19.00;;;;;;;;;;5051054;28;20048;-74
2022/01/07 09:22:05;;;;;;;31.30;17.65;;;;;;;;;;5034525;28;20052;-74
2022/01/07 09:24:31;;;;;;;28.27;18.58;;;;;;;;;;5034591;28;20040;-74
2022/01/07 09:26:59;;;;;;;31.48;17.83;;;;;;;;;;5050879;28;20052;-73
2022/01/07 09:29:26;;;;;;;28.90;17.63;;;;;;;;;;5034152;28;20052;-75
2022/01/07 09:31:53;;;;;;;39.92;18.10;;;;;;;;;;5036375;28;20041;-75
2022/01/07 09:34:19;;;;;;;27.08;15.50;;;;;;;;;;5038785;28;20033;-75
2022/01/07 09:36:45;;;;;;;21.98;12.77;;;;;;;;;;5023026;28;20040;-75
2022/01/07 09:39:11;;;;;;;20.23;10.43;;;;;;;;;;5017401;28;20094;-74
2022/01/07 09:41:37;;;;;;;25.42;9.95;;;;;;;;;;5017896;28;20051;-75
2022/01/07 09:44:03;;;;;;;13.90;8.02;;;;;;;;;;5034024;28;20037;-75
2022/01/07 09:46:29;;;;;;;14.00;7.38;;;;;;;;;;5034095;28;20524;-75
2022/01/07 09:48:55;;;;;;;15.40;6.95;;;;;;;;;;5058517;22;20040;-69
2022/01/07 09:51:22;;;;;;;15.55;7.40;;;;;;;;;;5013577;28;20041;-69
2022/01/07 09:53:48;;;;;;;14.93;7.90;;;;;;;;;;5012819;28;20573;-68
2022/01/07 09:56:15;;;;;;;13.20;7.30;;;;;;;;;;4997632;28;20042;-68
2022/01/07 09:58:41;;;;;;;14.20;8.23;;;;;;;;;;4997597;28;20098;-68
2022/01/07 10:01:16;;;;;;;12.85;6.45;;;;;;;;;;5016866;28;20468;-69
2022/01/07 10:03:43;;;;;;;16.00;7.00;;;;;;;;;;5033391;28;20041;-69
2022/01/07 10:06:21;;;;;;;11.85;6.65;;;;;;;;;;5033574;28;20052;-68
2022/01/07 10:09:07;;;;;;;12.70;7.03;;;;;;;;;;5033151;28;20553;-68
2022/01/07 10:11:33;;;;;;;12.43;6.28;;;;;;;;;;5033498;28;20135;-68
2022/01/07 10:14:18;;;;;;;10.07;5.30;;;;;;;;;;5033544;28;20068;-68
2022/01/07 10:16:55;;;;;;;7.05;4.63;;;;;;;;;;5033348;28;20041;-68
2022/01/07 10:19:28;;;;;;;6.38;3.95;;;;;;;;;;5032761;28;20083;-69
2022/01/07 10:21:58;;;;;;;5.10;2.92;;;;;;;;;;5033253;28;20044;-68
2022/01/07 10:24:24;;;;;;;6.68;3.60;;;;;;;;;;5032349;28;20518;-69
2022/01/07 10:27:09;;;;;;;4.57;2.38;;;;;;;;;;5033119;28;20576;-69
2022/01/07 10:29:42;;;;;;;8.63;3.47;;;;;;;;;;5032611;28;20036;-69
2022/01/07 10:32:21;;;;;;;10.30;3.60;;;;;;;;;;5033183;28;20041;-70
2022/01/07 10:35:07;;;;;;;5.40;2.28;;;;;;;;;;5032854;28;20049;-69
2022/01/07 10:37:34;;;;;;;6.75;2.55;;;;;;;;;;5016634;28;20039;-68
2022/01/07 10:40:00;;;;;;;4.18;2.30;;;;;;;;;;5016413;28;20045;-69
2022/01/07 10:42:27;;;;;;;5.32;2.88;;;;;;;;;;5016683;28;20527;-68
2022/01/07 10:45:00;;;;;;;6.18;2.63;;;;;;;;;;5016493;28;20072;-68
2022/01/07 10:47:26;;;;;;;6.20;3.30;;;;;;;;;;5016576;28;20049;-69
2022/01/07 10:50:12;;;;;;;7.15;2.65;;;;;;;;;;5016131;28;20037;-69
2022/01/07 10:52:38;;;;;;;8.05;3.45;;;;;;;;;;5017008;28;20045;-69
2022/01/07 10:55:09;;;;;;;7.13;3.35;;;;;;;;;;5016526;28;20041;-67
2022/01/07 10:57:53;;;;;;;9.80;4.30;;;;;;;;;;5016485;28;20120;-68
2022/01/07 11:00:20;;;;;;;13.38;5.25;;;;;;;;;;5016157;28;20143;-67
2022/01/07 11:02:47;;;;;;;12.07;5.25;;;;;;;;;;5016320;28;20530;-68
2022/01/07 11:05:13;;;;;;;9.18;5.40;;;;;;;;;;5016391;28;20041;-67
2022/01/07 11:07:39;;;;;;;13.40;5.85;;;;;;;;;;5016407;28;20040;-67
2022/01/07 11:10:05;;;;;;;15.27;6.55;;;;;;;;;;5015789;28;20040;-68
2022/01/07 11:12:32;;;;;;;20.10;8.10;;;;;;;;;;5016288;28;20386;-67
2022/01/07 11:14:58;;;;;;;13.57;7.57;;;;;;;;;;5016384;28;20566;-67
2022/01/07 11:17:26;;;;;;;18.17;9.35;;;;;;;;;;5016568;28;20033;-70
2022/01/07 11:19:53;;;;;;;17.35;8.82;;;;;;;;;;5016185;28;20123;-67
2022/01/07 11:22:21;;;;;;;21.65;10.18;;;;;;;;;;5016188;28;20037;-68
2022/01/07 11:24:50;;;;;;;18.23;8.98;;;;;;;;;;5023108;28;20033;-68
2022/01/07 11:27:21;;;;;;;23.67;10.57;;;;;;;;;;5015857;28;20511;-67
2022/01/07 11:29:50;;;;;;;21.73;11.13;;;;;;;;;;5015518;28;20514;-70
2022/01/07 11:32:26;;;;;;;21.05;10.05;;;;;;;;;;5016223;28;20049;-68
2022/01/07 11:34:52;;;;;;;18.65;11.10;;;;;;;;;;5017501;28;20091;-68
2022/01/07 11:37:35;;;;;;;20.30;10.27;;;;;;;;;;5055386;28;20495;-68
2022/01/07 11:40:01;;;;;;;18.65;10.15;;;;;;;;;;5055589;28;20052;-68
2022/01/07 11:42:40;;;;;;;21.42;10.40;;;;;;;;;;5055901;28;20587;-67
2022/01/07 11:45:28;;;;;;;20.10;9.57;;;;;;;;;;5048820;28;20049;-67
2022/01/07 11:47:55;;;;;;;24.33;10.40;;;;;;;;;;5016154;28;20108;-69
2022/01/07 11:50:22;;;;;;;20.23;11.10;;;;;;;;;;5015648;28;20056;-68
2022/01/07 11:52:56;;;;;;;22.38;10.20;;;;;;;;;;5015628;28;20045;-67
2022/01/07 11:55:23;;;;;;;25.17;9.40;;;;;;;;;;5013378;28;20034;-68
2022/01/07 11:57:57;;;;;;;17.92;8.52;;;;;;;;;;5014531;28;20068;-66
2022/01/07 12:00:42;;;;;;;19.90;9.23;;;;;;;;;;5012871;28;20101;-69
2022/01/07 12:03:08;;;;;;;21.33;8.68;;;;;;;;;;5029575;28;20044;-69
2022/01/07 12:05:37;;;;;;;19.40;7.70;;;;;;;;;;5032421;28;20052;-68
2022/01/07 12:08:02;;;;;;;14.23;6.22;;;6.20;99.90;;;;;;5018019;28;20067;-68
2022/01/07 12:10:29;;;;;;;13.88;6.10;;;;;;;;;;5034026;28;20041;-69
2022/01/07 12:13:00;;;;;;;12.00;4.65;;;6.10;99.90;;;;;;5034923;28;20071;-67
2022/01/07 12:15:27;;;;;;;11.13;4.57;;;6.10;99.90;;;;;;5035145;28;20354;-68
2022/01/07 12:17:53;;;;;;;16.83;6.32;;;6.00;99.90;;;;;;5018816;28;20389;-67
2022/01/07 12:20:43;;;;;;;14.98;4.30;;;6.00;99.90;;;;;;5034443;28;20095;-68
2022/01/07 12:23:08;;;;;;;11.13;3.67;;;5.90;99.90;;;;;;4998970;28;20085;-67
2022/01/07 12:25:35;;;;;;;12.63;3.17;;;5.80;99.90;;;;;;4999137;28;20085;-67
2022/01/07 12:28:02;;;;;;;10.93;3.35;;;5.80;99.90;;;;;;4999364;28;20188;-69
2022/01/07 12:30:28;;;;;;;7.55;3.38;;;5.80;99.90;;;;;;4998467;28;20045;-67
2022/01/07 12:32:59;;;;;;;11.45;2.83;;;5.80;99.90;;;;;;5015523;28;20398;-67
2022/01/07 12:35:29;;;;;;;7.95;2.83;;;5.70;99.90;;;;;;5011066;28;20028;-68
2022/01/07 12:37:55;;;;;;;12.18;3.42;;;5.90;99.90;;;;;;5033783;28;20051;-67
2022/01/07 12:40:20;;;;;;;14.10;2.80;;;5.80;99.90;;;;;;5018106;28;20041;-68
2022/01/07 12:42:46;;;;;;;10.82;2.20;;;5.70;99.90;;;;;;5018453;28;20484;-68
2022/01/07 12:45:21;;;;;;;12.95;2.95;;;5.90;99.90;;;;;;5018044;28;20102;-71
2022/01/07 12:47:46;;;;;;;10.80;3.38;;;5.70;99.90;;;;;;5017934;28;20047;-68
2022/01/07 12:50:13;;;;;;;11.45;2.40;;;5.70;99.90;;;;;;5017765;28;20115;-68
2022/01/07 12:52:45;;;;;;;14.05;3.10;;;5.70;99.90;;;;;;5018163;28;20037;-68
2022/01/07 12:55:20;;;;;;;9.00;2.47;;;5.60;99.90;;;;;;5018282;28;20068;-68
2022/01/07 12:57:51;;;;;;;9.20;2.35;;;5.70;99.90;;;;;;5018436;28;20094;-67
2022/01/07 13:00:27;;;;;;;14.32;2.83;;;5.70;99.90;;;;;;5019350;28;20051;-68
2022/01/07 13:03:12;;;;;;;14.45;2.03;;;6.00;99.90;;;;;;5018606;28;20051;-69
2022/01/07 13:05:40;;;;;;;14.73;2.83;;;;;;;;;;5018057;28;20040;-68
2022/01/07 13:08:17;;;;;;;6.78;2.70;;;6.10;99.90;;;;;;5034532;28;20048;-68
2022/01/07 13:10:46;;;;;;;18.25;4.00;;;6.00;99.90;;;;;;5017706;28;20045;-68
2022/01/07 13:13:22;;;;;;;8.43;2.65;;;5.90;99.90;;;;;;5034167;28;20508;-68
2022/01/07 13:15:53;;;;;;;9.00;2.60;;;5.90;99.90;;;;;;5017750;28;20037;-68
2022/01/07 13:18:30;;;;;;;8.40;2.55;;;5.90;99.90;;;;;;5017682;28;20079;-68
2022/01/07 13:20:57;;;;;;;17.23;3.00;;;5.90;99.90;;;;;;5017361;28;20037;-69
2022/01/07 13:23:25;;;;;;;7.50;2.25;;;5.90;99.90;;;;;;5017455;28;20049;-68
2022/01/07 13:25:52;;;;;;;13.32;3.58;;;5.90;99.90;;;;;;5017593;28;20037;-68
2022/01/07 13:28:36;;;;;;;8.70;2.20;;;6.10;99.90;;;;;;5017482;28;20043;-68
2022/01/07 13:31:03;;;;;;;11.18;2.97;;;6.00;99.90;;;;;;5017229;28;20037;-68
2022/01/07 13:33:30;;;;;;;10.63;2.20;;;6.00;99.90;;;;;;5016758;28;20124;-70
2022/01/07 13:35:58;;;;;;;11.25;2.90;;;6.00;99.90;;;;;;5027550;28;20467;-68
2022/01/07 13:38:24;;;;;;;8.82;2.42;;;6.00;99.90;;;;;;5053783;28;20043;-68
2022/01/07 13:41:02;;;;;;;9.82;2.58;;;6.10;99.90;;;;;;5036792;28;20049;-68
2022/01/07 13:43:30;;;;;;;11.52;3.45;;;6.10;99.90;;;;;;5036998;28;20036;-69
2022/01/07 13:46:07;;;;;;;11.93;3.13;;;5.90;99.90;;;;;;5053810;28;20036;-68
2022/01/07 13:48:33;;;;;;;10.40;2.65;;;6.00;99.90;;;;;;5037023;28;20430;-68
2022/01/07 13:51:10;;;;;;;13.02;2.95;;;5.90;99.90;;;;;;5036770;28;20186;-68
2022/01/07 13:53:36;;;;;;;9.68;3.00;;;6.10;99.90;;;;;;5037151;28;20503;-71
2022/01/07 13:56:09;;;;;;;11.00;3.13;;;6.00;99.90;;;;;;5037138;28;20046;-68
2022/01/07 13:58:35;;;;;;;16.13;3.15;;;6.10;99.90;;;;;;5036401;28;20036;-68
2022/01/07 14:01:06;;;;;;;8.93;2.47;;;6.00;99.90;;;;;;5052346;28;20040;-68
2022/01/07 14:03:49;;;;;;;13.02;2.35;;;6.00;99.90;;;;;;5036480;28;20396;-68
2022/01/07 14:06:19;;;;;;;13.40;3.42;;;5.80;99.90;;;;;;5036531;28;20041;-70
2022/01/07 14:08:45;;;;;;;7.78;2.45;;;;;;;;;;5019068;28;20048;-68
2022/01/07 14:11:15;;;;;;;9.20;3.10;;;6.00;99.90;;;;;;5016721;28;20047;-68
2022/01/07 14:13:41;;;;;;;13.88;2.88;;;5.90;99.90;;;;;;5016717;28;20082;-68
2022/01/07 14:16:07;;;;;;;14.70;3.22;;;5.90;99.90;;;;;;5017089;28;20037;-68
2022/01/07 14:18:37;;;;;;;14.85;3.55;;;5.90;99.90;;;;;;5017123;28;20040;-68
2022/01/07 14:21:04;;;;;;;8.02;1.90;;;6.10;99.90;;;;;;5016872;28;20515;-68
2022/01/07 14:23:31;;;;;;;12.52;2.95;;;5.90;99.90;;;;;;5016756;28;20033;-68
2022/01/07 14:26:19;;;;;;;13.13;2.63;;;5.80;99.90;;;;;;5016812;28;20040;-68